Portada
METAR-TAF:

METAR-TAF

Aeroports :

Bessemer, Alabama, Estats Units d'Amèrica

latitud: 33-18-45N, longitud: 086-55-35W, altitud: 213 m

Observació

L'informe es va fer fa 18 minuts, a les 09:56 UTC
Vent calma
Temperatura 18°C
Humitat 100%
Pressió 1018 hPa
Visibilitat: 12.9 km
Cel cobert a una alçada de 300 ft

METAR: KEKY 260956Z AUTO 00000KT 8SM OVC003 18/18 A3005 RMK AO2 SLP024 T01780178 PNO $

Hora: 05:14 (10:14 UTC)


TAF: manca

Observacions i pronòstics meteorològics de més de 4000 aeroports (METAR i TAF).

Les estacions disponibles són els punts grocs i vermells al mapa.

Posi el ratolí al punt desitjat per veure el nom de l'estació.

Feu clic per veure les observacions i els pronòstics meteorològics.

Per canviar el mapa: feu clic els botons verds amb una creu de color negre per apropar; al botó verd amb un guió per allunyar la imatge; o en les fletxes verdes per a mapes adjacents.


METAR-TAF: